sensor_id;sensor_type;location;lat;lon;timestamp;temperature;humidity
50586;DHT22;36542;51.700;8.846;2023-07-31T00:01:04;14.50;99.90
50586;DHT22;36542;51.700;8.846;2023-07-31T00:03:29;14.50;99.90
50586;DHT22;36542;51.700;8.846;2023-07-31T00:05:55;14.50;99.90
50586;DHT22;36542;51.700;8.846;2023-07-31T00:08:20;14.50;99.90
50586;DHT22;36542;51.700;8.846;2023-07-31T00:10:46;14.50;99.90
50586;DHT22;36542;51.700;8.846;2023-07-31T00:13:11;14.50;99.90
50586;DHT22;36542;51.700;8.846;2023-07-31T00:15:37;14.50;99.90
50586;DHT22;36542;51.700;8.846;2023-07-31T00:18:02;14.50;99.90
50586;DHT22;36542;51.700;8.846;2023-07-31T00:20:28;14.50;99.90
50586;DHT22;36542;51.700;8.846;2023-07-31T00:22:53;14.50;99.90
50586;DHT22;36542;51.700;8.846;2023-07-31T00:25:19;14.50;99.90
50586;DHT22;36542;51.700;8.846;2023-07-31T00:27:44;14.50;99.90
50586;DHT22;36542;51.700;8.846;2023-07-31T00:30:11;14.60;99.90
50586;DHT22;36542;51.700;8.846;2023-07-31T00:32:37;14.50;99.90
50586;DHT22;36542;51.700;8.846;2023-07-31T00:35:03;14.60;99.90
50586;DHT22;36542;51.700;8.846;2023-07-31T00:37:28;14.60;99.90
50586;DHT22;36542;51.700;8.846;2023-07-31T00:39:54;14.60;99.90
50586;DHT22;36542;51.700;8.846;2023-07-31T00:42:19;14.60;99.90
50586;DHT22;36542;51.700;8.846;2023-07-31T00:44:45;14.70;99.90
50586;DHT22;36542;51.700;8.846;2023-07-31T00:47:10;14.70;99.90
50586;DHT22;36542;51.700;8.846;2023-07-31T00:49:36;14.70;99.90
50586;DHT22;36542;51.700;8.846;2023-07-31T00:52:01;14.60;99.90
50586;DHT22;36542;51.700;8.846;2023-07-31T00:54:28;14.70;99.90
50586;DHT22;36542;51.700;8.846;2023-07-31T00:56:54;14.70;99.90
50586;DHT22;36542;51.700;8.846;2023-07-31T00:59:20;14.70;99.90
50586;DHT22;36542;51.700;8.846;2023-07-31T01:01:46;14.70;99.90
50586;DHT22;36542;51.700;8.846;2023-07-31T01:04:12;14.70;99.90
50586;DHT22;36542;51.700;8.846;2023-07-31T01:09:51;14.80;99.90
50586;DHT22;36542;51.700;8.846;2023-07-31T01:12:20;14.80;99.90
50586;DHT22;36542;51.700;8.846;2023-07-31T01:15:12;14.80;99.90
50586;DHT22;36542;51.700;8.846;2023-07-31T01:17:38;14.80;99.90
50586;DHT22;36542;51.700;8.846;2023-07-31T01:20:05;14.80;99.90
50586;DHT22;36542;51.700;8.846;2023-07-31T01:31:04;14.80;99.90
50586;DHT22;36542;51.700;8.846;2023-07-31T01:33:32;14.80;99.90
50586;DHT22;36542;51.700;8.846;2023-07-31T01:35:58;14.80;99.90
50586;DHT22;36542;51.700;8.846;2023-07-31T01:38:23;14.80;99.90
50586;DHT22;36542;51.700;8.846;2023-07-31T01:40:53;14.80;99.90
50586;DHT22;36542;51.700;8.846;2023-07-31T01:43:19;14.80;99.90
50586;DHT22;36542;51.700;8.846;2023-07-31T01:45:44;14.80;99.90
50586;DHT22;36542;51.700;8.846;2023-07-31T01:48:10;14.70;99.90
50586;DHT22;36542;51.700;8.846;2023-07-31T01:50:35;14.70;99.90
50586;DHT22;36542;51.700;8.846;2023-07-31T01:53:01;14.70;99.90
50586;DHT22;36542;51.700;8.846;2023-07-31T01:55:26;14.70;99.90
50586;DHT22;36542;51.700;8.846;2023-07-31T01:57:52;14.70;99.90
50586;DHT22;36542;51.700;8.846;2023-07-31T02:00:18;14.70;99.90
50586;DHT22;36542;51.700;8.846;2023-07-31T02:02:44;14.70;99.90
50586;DHT22;36542;51.700;8.846;2023-07-31T02:05:09;14.70;99.90
50586;DHT22;36542;51.700;8.846;2023-07-31T02:07:35;14.70;99.90
50586;DHT22;36542;51.700;8.846;2023-07-31T02:10:01;14.70;99.90
50586;DHT22;36542;51.700;8.846;2023-07-31T02:12:26;14.60;99.90
50586;DHT22;36542;51.700;8.846;2023-07-31T02:14:52;14.60;99.90
50586;DHT22;36542;51.700;8.846;2023-07-31T02:17:17;14.60;99.90
50586;DHT22;36542;51.700;8.846;2023-07-31T02:19:43;14.50;99.90
50586;DHT22;36542;51.700;8.846;2023-07-31T02:22:08;14.60;99.90
50586;DHT22;36542;51.700;8.846;2023-07-31T02:24:34;14.60;99.90
50586;DHT22;36542;51.700;8.846;2023-07-31T02:26:59;14.50;99.90
50586;DHT22;36542;51.700;8.846;2023-07-31T02:29:25;14.50;99.90
50586;DHT22;36542;51.700;8.846;2023-07-31T02:31:51;14.60;99.90
50586;DHT22;36542;51.700;8.846;2023-07-31T02:34:16;14.50;99.90
50586;DHT22;36542;51.700;8.846;2023-07-31T02:36:42;14.50;99.90
50586;DHT22;36542;51.700;8.846;2023-07-31T02:39:07;14.50;99.90
50586;DHT22;36542;51.700;8.846;2023-07-31T02:41:33;14.50;99.90
50586;DHT22;36542;51.700;8.846;2023-07-31T02:43:58;14.50;99.90
50586;DHT22;36542;51.700;8.846;2023-07-31T02:46:24;14.50;99.90
50586;DHT22;36542;51.700;8.846;2023-07-31T02:48:50;14.50;99.90
50586;DHT22;36542;51.700;8.846;2023-07-31T02:51:16;14.50;99.90
50586;DHT22;36542;51.700;8.846;2023-07-31T02:53:41;14.60;99.90
50586;DHT22;36542;51.700;8.846;2023-07-31T02:56:07;14.60;99.90
50586;DHT22;36542;51.700;8.846;2023-07-31T02:58:32;14.60;99.90
50586;DHT22;36542;51.700;8.846;2023-07-31T03:00:58;14.60;99.90
50586;DHT22;36542;51.700;8.846;2023-07-31T03:03:24;14.60;99.90
50586;DHT22;36542;51.700;8.846;2023-07-31T03:05:50;14.70;99.90
50586;DHT22;36542;51.700;8.846;2023-07-31T03:08:15;14.70;99.90
50586;DHT22;36542;51.700;8.846;2023-07-31T03:10:41;14.70;99.90
50586;DHT22;36542;51.700;8.846;2023-07-31T03:13:06;14.70;99.90
50586;DHT22;36542;51.700;8.846;2023-07-31T03:15:32;14.70;99.90
50586;DHT22;36542;51.700;8.846;2023-07-31T03:17:58;14.70;99.90
50586;DHT22;36542;51.700;8.846;2023-07-31T03:20:23;14.70;99.90
50586;DHT22;36542;51.700;8.846;2023-07-31T03:22:49;14.70;99.90
50586;DHT22;36542;51.700;8.846;2023-07-31T03:25:14;14.70;99.90
50586;DHT22;36542;51.700;8.846;2023-07-31T03:27:40;14.70;99.90
50586;DHT22;36542;51.700;8.846;2023-07-31T03:30:06;14.70;99.90
50586;DHT22;36542;51.700;8.846;2023-07-31T03:32:32;14.70;99.90
50586;DHT22;36542;51.700;8.846;2023-07-31T03:34:58;14.70;99.90
50586;DHT22;36542;51.700;8.846;2023-07-31T03:37:23;14.70;99.90
50586;DHT22;36542;51.700;8.846;2023-07-31T03:39:49;14.70;99.90
50586;DHT22;36542;51.700;8.846;2023-07-31T03:42:14;14.70;99.90
50586;DHT22;36542;51.700;8.846;2023-07-31T03:44:40;14.70;99.90
50586;DHT22;36542;51.700;8.846;2023-07-31T03:47:05;14.70;99.90
50586;DHT22;36542;51.700;8.846;2023-07-31T03:49:31;14.70;99.90
50586;DHT22;36542;51.700;8.846;2023-07-31T03:51:57;14.70;99.90
50586;DHT22;36542;51.700;8.846;2023-07-31T03:54:22;14.70;99.90
50586;DHT22;36542;51.700;8.846;2023-07-31T03:56:48;14.70;99.90
50586;DHT22;36542;51.700;8.846;2023-07-31T03:59:13;14.70;99.90
50586;DHT22;36542;51.700;8.846;2023-07-31T04:01:39;14.70;99.90
50586;DHT22;36542;51.700;8.846;2023-07-31T04:04:04;14.70;99.90
50586;DHT22;36542;51.700;8.846;2023-07-31T04:06:30;14.70;99.90
50586;DHT22;36542;51.700;8.846;2023-07-31T04:08:56;14.70;99.90
50586;DHT22;36542;51.700;8.846;2023-07-31T04:11:21;14.70;99.90
50586;DHT22;36542;51.700;8.846;2023-07-31T04:13:47;14.70;99.90
50586;DHT22;36542;51.700;8.846;2023-07-31T04:16:13;14.70;99.90
50586;DHT22;36542;51.700;8.846;2023-07-31T04:18:38;14.70;99.90
50586;DHT22;36542;51.700;8.846;2023-07-31T04:21:04;14.70;99.90
50586;DHT22;36542;51.700;8.846;2023-07-31T04:23:29;14.70;99.90
50586;DHT22;36542;51.700;8.846;2023-07-31T04:25:55;14.70;99.90
50586;DHT22;36542;51.700;8.846;2023-07-31T04:28:21;14.70;99.90
50586;DHT22;36542;51.700;8.846;2023-07-31T04:30:46;14.70;99.90
50586;DHT22;36542;51.700;8.846;2023-07-31T04:33:12;14.70;99.90
50586;DHT22;36542;51.700;8.846;2023-07-31T04:35:38;14.70;99.90
50586;DHT22;36542;51.700;8.846;2023-07-31T04:38:03;14.70;99.90
50586;DHT22;36542;51.700;8.846;2023-07-31T04:40:29;14.70;99.90
50586;DHT22;36542;51.700;8.846;2023-07-31T04:42:54;14.70;99.90
50586;DHT22;36542;51.700;8.846;2023-07-31T04:45:20;14.70;99.90
50586;DHT22;36542;51.700;8.846;2023-07-31T04:47:45;14.70;99.90
50586;DHT22;36542;51.700;8.846;2023-07-31T04:50:11;14.70;99.90
50586;DHT22;36542;51.700;8.846;2023-07-31T04:52:36;14.70;99.90
50586;DHT22;36542;51.700;8.846;2023-07-31T04:55:02;14.70;99.90
50586;DHT22;36542;51.700;8.846;2023-07-31T04:57:28;14.70;99.90
50586;DHT22;36542;51.700;8.846;2023-07-31T04:59:53;14.70;99.90
50586;DHT22;36542;51.700;8.846;2023-07-31T05:02:19;14.70;99.90
50586;DHT22;36542;51.700;8.846;2023-07-31T05:04:45;14.80;99.90
50586;DHT22;36542;51.700;8.846;2023-07-31T05:07:10;14.80;99.90
50586;DHT22;36542;51.700;8.846;2023-07-31T05:09:36;14.80;99.90
50586;DHT22;36542;51.700;8.846;2023-07-31T05:12:01;14.90;99.90
50586;DHT22;36542;51.700;8.846;2023-07-31T05:14:27;14.90;99.90
50586;DHT22;36542;51.700;8.846;2023-07-31T05:16:53;14.90;99.90
50586;DHT22;36542;51.700;8.846;2023-07-31T05:19:18;15.00;99.90
50586;DHT22;36542;51.700;8.846;2023-07-31T05:21:44;15.00;99.90
50586;DHT22;36542;51.700;8.846;2023-07-31T05:24:10;15.00;99.90
50586;DHT22;36542;51.700;8.846;2023-07-31T05:26:36;15.10;99.90
50586;DHT22;36542;51.700;8.846;2023-07-31T05:29:01;15.10;99.90
50586;DHT22;36542;51.700;8.846;2023-07-31T05:31:27;15.20;99.90
50586;DHT22;36542;51.700;8.846;2023-07-31T05:33:53;15.20;99.90
50586;DHT22;36542;51.700;8.846;2023-07-31T05:36:19;15.30;99.90
50586;DHT22;36542;51.700;8.846;2023-07-31T05:38:44;15.40;99.90
50586;DHT22;36542;51.700;8.846;2023-07-31T05:41:11;15.40;99.90
50586;DHT22;36542;51.700;8.846;2023-07-31T05:43:37;15.40;99.90
50586;DHT22;36542;51.700;8.846;2023-07-31T05:46:03;15.50;99.90
50586;DHT22;36542;51.700;8.846;2023-07-31T05:48:28;15.50;99.90
50586;DHT22;36542;51.700;8.846;2023-07-31T05:50:54;15.50;99.90
50586;DHT22;36542;51.700;8.846;2023-07-31T05:53:19;15.50;99.90
50586;DHT22;36542;51.700;8.846;2023-07-31T05:55:45;15.60;99.90
50586;DHT22;36542;51.700;8.846;2023-07-31T05:58:10;15.60;99.90
50586;DHT22;36542;51.700;8.846;2023-07-31T06:00:36;15.60;99.90
50586;DHT22;36542;51.700;8.846;2023-07-31T06:03:01;15.70;99.90
50586;DHT22;36542;51.700;8.846;2023-07-31T06:05:27;15.60;99.90
50586;DHT22;36542;51.700;8.846;2023-07-31T06:07:55;15.60;99.90
50586;DHT22;36542;51.700;8.846;2023-07-31T06:10:20;15.60;99.90
50586;DHT22;36542;51.700;8.846;2023-07-31T06:12:46;15.60;99.90
50586;DHT22;36542;51.700;8.846;2023-07-31T06:15:12;15.60;99.90
50586;DHT22;36542;51.700;8.846;2023-07-31T06:17:37;15.60;99.90
50586;DHT22;36542;51.700;8.846;2023-07-31T06:20:03;15.60;99.90
50586;DHT22;36542;51.700;8.846;2023-07-31T06:22:30;15.70;99.90
50586;DHT22;36542;51.700;8.846;2023-07-31T06:24:56;15.80;99.90
50586;DHT22;36542;51.700;8.846;2023-07-31T06:27:22;15.80;99.90
50586;DHT22;36542;51.700;8.846;2023-07-31T06:29:47;15.80;99.90
50586;DHT22;36542;51.700;8.846;2023-07-31T06:32:13;15.90;99.90
50586;DHT22;36542;51.700;8.846;2023-07-31T06:34:39;15.80;99.90
50586;DHT22;36542;51.700;8.846;2023-07-31T06:37:04;15.80;99.90
50586;DHT22;36542;51.700;8.846;2023-07-31T06:39:30;15.80;99.90
50586;DHT22;36542;51.700;8.846;2023-07-31T06:41:56;15.80;99.90
50586;DHT22;36542;51.700;8.846;2023-07-31T06:44:21;15.80;99.90
50586;DHT22;36542;51.700;8.846;2023-07-31T06:46:47;15.80;99.90
50586;DHT22;36542;51.700;8.846;2023-07-31T06:49:12;15.90;99.90
50586;DHT22;36542;51.700;8.846;2023-07-31T06:51:40;16.00;99.90
50586;DHT22;36542;51.700;8.846;2023-07-31T06:54:06;16.10;99.90
50586;DHT22;36542;51.700;8.846;2023-07-31T06:56:31;16.10;99.90
50586;DHT22;36542;51.700;8.846;2023-07-31T06:58:57;16.20;99.90
50586;DHT22;36542;51.700;8.846;2023-07-31T07:01:23;16.20;99.90
50586;DHT22;36542;51.700;8.846;2023-07-31T07:03:48;16.20;99.90
50586;DHT22;36542;51.700;8.846;2023-07-31T07:06:16;16.20;99.90
50586;DHT22;36542;51.700;8.846;2023-07-31T07:08:42;16.10;99.90
50586;DHT22;36542;51.700;8.846;2023-07-31T07:11:07;16.10;99.90
50586;DHT22;36542;51.700;8.846;2023-07-31T07:13:33;16.10;99.90
50586;DHT22;36542;51.700;8.846;2023-07-31T07:15:59;16.00;99.90
50586;DHT22;36542;51.700;8.846;2023-07-31T07:18:24;16.00;99.90
50586;DHT22;36542;51.700;8.846;2023-07-31T07:20:51;16.00;99.90
50586;DHT22;36542;51.700;8.846;2023-07-31T07:23:17;15.90;99.90
50586;DHT22;36542;51.700;8.846;2023-07-31T07:25:43;15.90;99.90
50586;DHT22;36542;51.700;8.846;2023-07-31T07:28:09;15.80;99.90
50586;DHT22;36542;51.700;8.846;2023-07-31T07:30:35;15.80;99.90
50586;DHT22;36542;51.700;8.846;2023-07-31T07:33:01;15.80;99.90
50586;DHT22;36542;51.700;8.846;2023-07-31T07:35:26;15.80;99.90
50586;DHT22;36542;51.700;8.846;2023-07-31T07:37:51;15.80;99.90
50586;DHT22;36542;51.700;8.846;2023-07-31T07:40:17;15.80;99.90
50586;DHT22;36542;51.700;8.846;2023-07-31T07:42:43;15.80;99.90
50586;DHT22;36542;51.700;8.846;2023-07-31T07:45:09;15.80;99.90
50586;DHT22;36542;51.700;8.846;2023-07-31T07:47:34;15.90;99.90
50586;DHT22;36542;51.700;8.846;2023-07-31T07:50:00;15.80;99.90
50586;DHT22;36542;51.700;8.846;2023-07-31T07:52:25;15.80;99.90
50586;DHT22;36542;51.700;8.846;2023-07-31T07:54:51;15.90;99.90
50586;DHT22;36542;51.700;8.846;2023-07-31T07:57:16;15.90;99.90
50586;DHT22;36542;51.700;8.846;2023-07-31T07:59:42;15.90;99.90
50586;DHT22;36542;51.700;8.846;2023-07-31T08:02:08;15.90;99.90
50586;DHT22;36542;51.700;8.846;2023-07-31T08:04:33;15.90;99.90
50586;DHT22;36542;51.700;8.846;2023-07-31T08:06:59;15.80;99.90
50586;DHT22;36542;51.700;8.846;2023-07-31T08:09:24;15.70;99.90
50586;DHT22;36542;51.700;8.846;2023-07-31T08:11:50;15.60;99.90
50586;DHT22;36542;51.700;8.846;2023-07-31T08:14:15;15.60;99.90
50586;DHT22;36542;51.700;8.846;2023-07-31T08:16:41;15.50;99.90
50586;DHT22;36542;51.700;8.846;2023-07-31T08:19:06;15.60;99.90
50586;DHT22;36542;51.700;8.846;2023-07-31T08:21:32;15.60;99.90
50586;DHT22;36542;51.700;8.846;2023-07-31T08:23:57;15.70;99.90
50586;DHT22;36542;51.700;8.846;2023-07-31T08:26:23;15.70;99.90
50586;DHT22;36542;51.700;8.846;2023-07-31T08:28:48;15.90;99.90
50586;DHT22;36542;51.700;8.846;2023-07-31T08:31:14;16.00;99.90
50586;DHT22;36542;51.700;8.846;2023-07-31T08:33:40;16.10;99.90
50586;DHT22;36542;51.700;8.846;2023-07-31T08:36:06;16.10;99.90
50586;DHT22;36542;51.700;8.846;2023-07-31T08:38:31;16.30;99.90
50586;DHT22;36542;51.700;8.846;2023-07-31T08:40:57;16.30;99.90
50586;DHT22;36542;51.700;8.846;2023-07-31T08:43:25;16.30;99.90
50586;DHT22;36542;51.700;8.846;2023-07-31T08:45:53;16.30;99.90
50586;DHT22;36542;51.700;8.846;2023-07-31T08:48:20;16.30;99.90
50586;DHT22;36542;51.700;8.846;2023-07-31T08:50:46;16.30;99.90
50586;DHT22;36542;51.700;8.846;2023-07-31T08:53:12;16.50;99.90
50586;DHT22;36542;51.700;8.846;2023-07-31T08:55:38;16.60;99.90
50586;DHT22;36542;51.700;8.846;2023-07-31T08:58:04;16.60;99.90
50586;DHT22;36542;51.700;8.846;2023-07-31T09:00:32;16.50;99.90
50586;DHT22;36542;51.700;8.846;2023-07-31T09:03:02;16.50;99.90
50586;DHT22;36542;51.700;8.846;2023-07-31T09:05:29;16.50;99.90
50586;DHT22;36542;51.700;8.846;2023-07-31T09:07:56;16.50;99.90
50586;DHT22;36542;51.700;8.846;2023-07-31T09:10:22;16.40;99.90
50586;DHT22;36542;51.700;8.846;2023-07-31T09:12:50;16.50;99.90
50586;DHT22;36542;51.700;8.846;2023-07-31T09:15:16;16.40;99.90
50586;DHT22;36542;51.700;8.846;2023-07-31T09:17:42;16.40;99.90
50586;DHT22;36542;51.700;8.846;2023-07-31T09:20:17;16.40;99.90
50586;DHT22;36542;51.700;8.846;2023-07-31T09:22:43;16.40;99.90
50586;DHT22;36542;51.700;8.846;2023-07-31T09:25:19;16.40;99.90
50586;DHT22;36542;51.700;8.846;2023-07-31T09:27:58;16.50;99.90
50586;DHT22;36542;51.700;8.846;2023-07-31T09:30:25;16.60;99.90
50586;DHT22;36542;51.700;8.846;2023-07-31T09:32:52;16.70;99.90
50586;DHT22;36542;51.700;8.846;2023-07-31T09:35:32;16.90;99.90
50586;DHT22;36542;51.700;8.846;2023-07-31T09:38:00;17.10;99.90
50586;DHT22;36542;51.700;8.846;2023-07-31T09:40:28;17.10;99.90
50586;DHT22;36542;51.700;8.846;2023-07-31T09:42:59;17.20;99.90
50586;DHT22;36542;51.700;8.846;2023-07-31T09:45:26;17.40;99.90
50586;DHT22;36542;51.700;8.846;2023-07-31T09:47:51;17.50;99.90
50586;DHT22;36542;51.700;8.846;2023-07-31T09:50:19;17.70;99.90
50586;DHT22;36542;51.700;8.846;2023-07-31T09:52:45;17.70;99.90
50586;DHT22;36542;51.700;8.846;2023-07-31T09:55:11;17.80;99.90
50586;DHT22;36542;51.700;8.846;2023-07-31T09:57:41;17.80;99.90
50586;DHT22;36542;51.700;8.846;2023-07-31T10:00:08;18.00;99.90
50586;DHT22;36542;51.700;8.846;2023-07-31T10:02:37;18.10;99.90
50586;DHT22;36542;51.700;8.846;2023-07-31T10:05:04;18.10;99.90
50586;DHT22;36542;51.700;8.846;2023-07-31T10:07:33;18.10;99.90
50586;DHT22;36542;51.700;8.846;2023-07-31T10:10:00;18.20;99.90
50586;DHT22;36542;51.700;8.846;2023-07-31T10:12:27;18.40;99.90
50586;DHT22;36542;51.700;8.846;2023-07-31T10:14:55;18.30;99.90
50586;DHT22;36542;51.700;8.846;2023-07-31T10:17:24;18.10;99.90
50586;DHT22;36542;51.700;8.846;2023-07-31T10:19:51;17.90;99.90
50586;DHT22;36542;51.700;8.846;2023-07-31T10:22:18;18.00;99.90
50586;DHT22;36542;51.700;8.846;2023-07-31T10:24:45;18.10;99.90
50586;DHT22;36542;51.700;8.846;2023-07-31T10:27:11;18.20;99.90
50586;DHT22;36542;51.700;8.846;2023-07-31T10:29:38;18.30;99.90
50586;DHT22;36542;51.700;8.846;2023-07-31T10:32:05;18.30;99.90
50586;DHT22;36542;51.700;8.846;2023-07-31T10:34:34;18.10;99.90
50586;DHT22;36542;51.700;8.846;2023-07-31T10:37:20;18.10;99.90
50586;DHT22;36542;51.700;8.846;2023-07-31T10:42:50;17.80;99.90
50586;DHT22;36542;51.700;8.846;2023-07-31T10:50:30;17.50;99.90
50586;DHT22;36542;51.700;8.846;2023-07-31T10:52:57;17.40;99.90
50586;DHT22;36542;51.700;8.846;2023-07-31T10:55:32;17.30;99.90
50586;DHT22;36542;51.700;8.846;2023-07-31T10:58:08;17.10;99.90
50586;DHT22;36542;51.700;8.846;2023-07-31T11:00:37;17.10;99.90
50586;DHT22;36542;51.700;8.846;2023-07-31T11:03:08;17.10;99.90
50586;DHT22;36542;51.700;8.846;2023-07-31T11:10:47;17.00;99.90
50586;DHT22;36542;51.700;8.846;2023-07-31T11:13:13;17.10;99.90
50586;DHT22;36542;51.700;8.846;2023-07-31T11:15:39;17.20;99.90
50586;DHT22;36542;51.700;8.846;2023-07-31T11:18:04;17.10;99.90
50586;DHT22;36542;51.700;8.846;2023-07-31T11:20:34;17.00;99.90
50586;DHT22;36542;51.700;8.846;2023-07-31T11:23:08;17.00;99.90
50586;DHT22;36542;51.700;8.846;2023-07-31T11:25:35;17.00;99.90
50586;DHT22;36542;51.700;8.846;2023-07-31T11:28:05;17.10;99.90
50586;DHT22;36542;51.700;8.846;2023-07-31T11:30:32;17.30;99.90
50586;DHT22;36542;51.700;8.846;2023-07-31T11:32:58;17.30;99.90
50586;DHT22;36542;51.700;8.846;2023-07-31T11:35:23;17.30;99.90
50586;DHT22;36542;51.700;8.846;2023-07-31T11:37:49;17.40;99.90
50586;DHT22;36542;51.700;8.846;2023-07-31T11:40:15;17.70;99.90
50586;DHT22;36542;51.700;8.846;2023-07-31T11:42:41;17.70;99.90
50586;DHT22;36542;51.700;8.846;2023-07-31T11:45:08;17.60;99.90
50586;DHT22;36542;51.700;8.846;2023-07-31T11:47:34;17.50;99.90
50586;DHT22;36542;51.700;8.846;2023-07-31T11:50:01;17.40;99.90
50586;DHT22;36542;51.700;8.846;2023-07-31T11:52:34;17.40;99.90
50586;DHT22;36542;51.700;8.846;2023-07-31T11:55:01;17.40;99.90
50586;DHT22;36542;51.700;8.846;2023-07-31T11:57:28;17.40;99.90
50586;DHT22;36542;51.700;8.846;2023-07-31T11:59:55;17.40;99.90
50586;DHT22;36542;51.700;8.846;2023-07-31T12:02:21;17.60;99.90
50586;DHT22;36542;51.700;8.846;2023-07-31T12:04:47;17.50;99.90
50586;DHT22;36542;51.700;8.846;2023-07-31T12:07:13;17.50;99.90
50586;DHT22;36542;51.700;8.846;2023-07-31T12:09:51;17.20;99.90
50586;DHT22;36542;51.700;8.846;2023-07-31T12:12:20;17.20;99.90
50586;DHT22;36542;51.700;8.846;2023-07-31T12:14:46;17.00;99.90
50586;DHT22;36542;51.700;8.846;2023-07-31T12:17:11;17.00;99.90
50586;DHT22;36542;51.700;8.846;2023-07-31T12:19:37;17.10;99.90
50586;DHT22;36542;51.700;8.846;2023-07-31T12:22:14;17.20;99.90
50586;DHT22;36542;51.700;8.846;2023-07-31T12:24:41;17.20;99.90
50586;DHT22;36542;51.700;8.846;2023-07-31T12:27:14;17.40;99.90
50586;DHT22;36542;51.700;8.846;2023-07-31T12:29:42;17.60;99.90
50586;DHT22;36542;51.700;8.846;2023-07-31T12:32:39;17.60;99.90
50586;DHT22;36542;51.700;8.846;2023-07-31T12:35:06;17.70;99.90
50586;DHT22;36542;51.700;8.846;2023-07-31T12:37:32;17.70;99.90
50586;DHT22;36542;51.700;8.846;2023-07-31T12:39:58;17.70;99.90
50586;DHT22;36542;51.700;8.846;2023-07-31T12:42:30;17.80;99.90
50586;DHT22;36542;51.700;8.846;2023-07-31T12:44:56;18.00;99.90
50586;DHT22;36542;51.700;8.846;2023-07-31T12:47:21;18.10;99.90
50586;DHT22;36542;51.700;8.846;2023-07-31T12:49:47;18.20;99.90
50586;DHT22;36542;51.700;8.846;2023-07-31T12:52:12;18.20;99.90
50586;DHT22;36542;51.700;8.846;2023-07-31T12:54:38;18.00;99.90
50586;DHT22;36542;51.700;8.846;2023-07-31T12:57:04;17.80;99.90
50586;DHT22;36542;51.700;8.846;2023-07-31T12:59:29;17.70;99.90
50586;DHT22;36542;51.700;8.846;2023-07-31T13:01:55;17.70;99.90
50586;DHT22;36542;51.700;8.846;2023-07-31T13:04:20;17.60;99.90
50586;DHT22;36542;51.700;8.846;2023-07-31T13:06:46;17.60;99.90
50586;DHT22;36542;51.700;8.846;2023-07-31T13:09:12;17.60;99.90
50586;DHT22;36542;51.700;8.846;2023-07-31T13:11:38;17.60;99.90
50586;DHT22;36542;51.700;8.846;2023-07-31T13:14:03;17.60;99.90
50586;DHT22;36542;51.700;8.846;2023-07-31T13:16:29;17.70;99.90
50586;DHT22;36542;51.700;8.846;2023-07-31T13:18:54;17.60;99.90
50586;DHT22;36542;51.700;8.846;2023-07-31T13:21:20;17.60;99.90
50586;DHT22;36542;51.700;8.846;2023-07-31T13:23:47;17.60;99.90
50586;DHT22;36542;51.700;8.846;2023-07-31T13:26:13;17.60;99.90
50586;DHT22;36542;51.700;8.846;2023-07-31T13:28:38;17.60;99.90
50586;DHT22;36542;51.700;8.846;2023-07-31T13:31:04;17.70;99.90
50586;DHT22;36542;51.700;8.846;2023-07-31T13:33:29;17.70;99.90
50586;DHT22;36542;51.700;8.846;2023-07-31T13:35:55;17.80;99.90
50586;DHT22;36542;51.700;8.846;2023-07-31T13:38:20;17.80;99.90
50586;DHT22;36542;51.700;8.846;2023-07-31T13:40:46;17.70;99.90
50586;DHT22;36542;51.700;8.846;2023-07-31T13:43:11;17.70;99.90
50586;DHT22;36542;51.700;8.846;2023-07-31T13:45:37;17.70;99.90
50586;DHT22;36542;51.700;8.846;2023-07-31T13:48:02;17.80;99.90
50586;DHT22;36542;51.700;8.846;2023-07-31T13:50:29;17.80;99.90
50586;DHT22;36542;51.700;8.846;2023-07-31T13:52:54;17.90;99.90
50586;DHT22;36542;51.700;8.846;2023-07-31T13:55:20;18.00;99.90
50586;DHT22;36542;51.700;8.846;2023-07-31T13:57:46;18.10;99.90
50586;DHT22;36542;51.700;8.846;2023-07-31T14:00:13;18.20;99.90
50586;DHT22;36542;51.700;8.846;2023-07-31T14:02:39;18.20;99.90
50586;DHT22;36542;51.700;8.846;2023-07-31T14:05:04;18.10;99.90
50586;DHT22;36542;51.700;8.846;2023-07-31T14:07:32;18.10;99.90
50586;DHT22;36542;51.700;8.846;2023-07-31T14:09:57;18.00;99.90
50586;DHT22;36542;51.700;8.846;2023-07-31T14:12:23;18.00;99.90
50586;DHT22;36542;51.700;8.846;2023-07-31T14:14:48;17.90;99.90
50586;DHT22;36542;51.700;8.846;2023-07-31T14:17:14;17.90;99.90
50586;DHT22;36542;51.700;8.846;2023-07-31T14:19:39;17.70;99.90
50586;DHT22;36542;51.700;8.846;2023-07-31T14:22:05;17.60;99.90
50586;DHT22;36542;51.700;8.846;2023-07-31T14:24:30;17.60;99.90
50586;DHT22;36542;51.700;8.846;2023-07-31T14:26:56;17.60;99.90
50586;DHT22;36542;51.700;8.846;2023-07-31T14:29:21;17.60;99.90
50586;DHT22;36542;51.700;8.846;2023-07-31T14:31:47;17.40;99.90
50586;DHT22;36542;51.700;8.846;2023-07-31T14:34:13;17.40;99.90
50586;DHT22;36542;51.700;8.846;2023-07-31T14:36:38;17.30;99.90
50586;DHT22;36542;51.700;8.846;2023-07-31T14:39:04;17.20;99.90
50586;DHT22;36542;51.700;8.846;2023-07-31T14:41:29;17.20;99.90
50586;DHT22;36542;51.700;8.846;2023-07-31T14:43:55;17.10;99.90
50586;DHT22;36542;51.700;8.846;2023-07-31T14:46:20;17.10;99.90
50586;DHT22;36542;51.700;8.846;2023-07-31T14:48:46;17.10;99.90
50586;DHT22;36542;51.700;8.846;2023-07-31T14:51:11;17.20;99.90
50586;DHT22;36542;51.700;8.846;2023-07-31T14:53:37;17.30;99.90
50586;DHT22;36542;51.700;8.846;2023-07-31T14:56:03;17.30;99.90
50586;DHT22;36542;51.700;8.846;2023-07-31T14:58:28;17.40;99.90
50586;DHT22;36542;51.700;8.846;2023-07-31T15:00:54;17.40;99.90
50586;DHT22;36542;51.700;8.846;2023-07-31T15:03:19;17.40;99.90
50586;DHT22;36542;51.700;8.846;2023-07-31T15:05:45;17.50;99.90
50586;DHT22;36542;51.700;8.846;2023-07-31T15:08:11;17.60;99.90
50586;DHT22;36542;51.700;8.846;2023-07-31T15:10:36;17.50;99.90
50586;DHT22;36542;51.700;8.846;2023-07-31T15:13:02;17.60;99.90
50586;DHT22;36542;51.700;8.846;2023-07-31T15:15:27;17.60;99.90
50586;DHT22;36542;51.700;8.846;2023-07-31T15:17:53;17.60;99.90
50586;DHT22;36542;51.700;8.846;2023-07-31T15:20:20;17.60;99.90
50586;DHT22;36542;51.700;8.846;2023-07-31T15:22:46;17.80;99.90
50586;DHT22;36542;51.700;8.846;2023-07-31T15:25:11;17.90;99.90
50586;DHT22;36542;51.700;8.846;2023-07-31T15:27:37;17.80;99.90
50586;DHT22;36542;51.700;8.846;2023-07-31T15:30:03;17.70;99.90
50586;DHT22;36542;51.700;8.846;2023-07-31T15:32:30;17.60;99.90
50586;DHT22;36542;51.700;8.846;2023-07-31T15:34:56;17.60;99.90
50586;DHT22;36542;51.700;8.846;2023-07-31T15:37:22;17.50;99.90
50586;DHT22;36542;51.700;8.846;2023-07-31T15:39:47;17.50;99.90
50586;DHT22;36542;51.700;8.846;2023-07-31T15:42:13;17.50;99.90
50586;DHT22;36542;51.700;8.846;2023-07-31T15:44:38;17.40;99.90
50586;DHT22;36542;51.700;8.846;2023-07-31T15:47:04;17.40;99.90
50586;DHT22;36542;51.700;8.846;2023-07-31T15:49:30;17.50;99.90